sensor_id;sensor_type;location;lat;lon;timestamp;pressure;altitude;pressure_sealevel;temperature;humidity
13974;BME280;7060;43.770;4.008;2023-03-03T00:00:44;101157.38;;;4.04;63.51
13974;BME280;7060;43.770;4.008;2023-03-03T00:03:15;101163.78;;;4.00;63.73
13974;BME280;7060;43.770;4.008;2023-03-03T00:05:45;101156.22;;;3.94;63.45
13974;BME280;7060;43.770;4.008;2023-03-03T00:08:13;101153.28;;;3.99;63.05
13974;BME280;7060;43.770;4.008;2023-03-03T00:10:41;101149.53;;;4.03;63.17
13974;BME280;7060;43.770;4.008;2023-03-03T00:13:15;101158.31;;;4.03;62.77
13974;BME280;7060;43.770;4.008;2023-03-03T00:15:46;101152.25;;;4.01;63.16
13974;BME280;7060;43.770;4.008;2023-03-03T00:18:21;101151.41;;;4.01;63.53
13974;BME280;7060;43.770;4.008;2023-03-03T00:20:53;101151.41;;;4.01;63.68
13974;BME280;7060;43.770;4.008;2023-03-03T00:23:30;101149.34;;;4.06;63.40
13974;BME280;7060;43.770;4.008;2023-03-03T00:25:58;101145.94;;;4.04;63.24
13974;BME280;7060;43.770;4.008;2023-03-03T00:28:28;101123.34;;;3.84;63.12
13974;BME280;7060;43.770;4.008;2023-03-03T00:31:00;101148.00;;;3.99;63.39
13974;BME280;7060;43.770;4.008;2023-03-03T00:33:31;101110.31;;;3.81;62.87
13974;BME280;7060;43.770;4.008;2023-03-03T00:36:20;101145.94;;;4.04;62.96
13974;BME280;7060;43.770;4.008;2023-03-03T00:38:49;101146.28;;;3.98;63.02
13974;BME280;7060;43.770;4.008;2023-03-03T00:41:22;101142.81;;;3.97;63.19
13974;BME280;7060;43.770;4.008;2023-03-03T00:43:51;101142.81;;;3.97;62.71
13974;BME280;7060;43.770;4.008;2023-03-03T00:46:22;101141.00;;;3.98;63.14
13974;BME280;7060;43.770;4.008;2023-03-03T00:48:51;101142.13;;;3.94;63.24
13974;BME280;7060;43.770;4.008;2023-03-03T00:51:30;101133.56;;;3.90;62.48
13974;BME280;7060;43.770;4.008;2023-03-03T00:53:59;101146.78;;;3.90;62.95
13974;BME280;7060;43.770;4.008;2023-03-03T00:56:27;101138.84;;;3.90;63.60
13974;BME280;7060;43.770;4.008;2023-03-03T00:58:56;101143.94;;;3.93;62.83
13974;BME280;7060;43.770;4.008;2023-03-03T01:01:28;101147.34;;;3.95;62.51
13974;BME280;7060;43.770;4.008;2023-03-03T01:03:56;101147.41;;;3.94;63.38
13974;BME280;7060;43.770;4.008;2023-03-03T01:06:25;101157.91;;;3.95;63.48
13974;BME280;7060;43.770;4.008;2023-03-03T01:08:54;101152.63;;;3.95;63.05
13974;BME280;7060;43.770;4.008;2023-03-03T01:11:25;101038.00;;;3.24;62.69
13974;BME280;7060;43.770;4.008;2023-03-03T01:13:55;101165.22;;;3.92;63.42
13974;BME280;7060;43.770;4.008;2023-03-03T01:16:25;101168.88;;;3.89;63.42
13974;BME280;7060;43.770;4.008;2023-03-03T01:18:55;101139.00;;;3.73;62.79
13974;BME280;7060;43.770;4.008;2023-03-03T01:21:24;101163.28;;;3.80;63.53
13974;BME280;7060;43.770;4.008;2023-03-03T01:23:52;101156.94;;;3.68;63.08
13974;BME280;7060;43.770;4.008;2023-03-03T01:26:21;101159.31;;;3.72;63.74
13974;BME280;7060;43.770;4.008;2023-03-03T01:28:49;101158.94;;;3.64;63.54
13974;BME280;7060;43.770;4.008;2023-03-03T01:31:18;101161.66;;;3.63;62.92
13974;BME280;7060;43.770;4.008;2023-03-03T01:33:46;101142.34;;;3.47;63.62
13974;BME280;7060;43.770;4.008;2023-03-03T01:36:22;100888.34;;;1.90;63.12
13974;BME280;7060;43.770;4.008;2023-03-03T01:38:50;101152.06;;;3.46;63.21
13974;BME280;7060;43.770;4.008;2023-03-03T01:41:19;101154.97;;;3.41;64.13
13974;BME280;7060;43.770;4.008;2023-03-03T01:43:49;101147.44;;;3.35;64.25
13974;BME280;7060;43.770;4.008;2023-03-03T01:46:32;101144.19;;;3.30;63.64
13974;BME280;7060;43.770;4.008;2023-03-03T01:49:06;101110.69;;;3.01;63.76
13974;BME280;7060;43.770;4.008;2023-03-03T01:51:44;101145.44;;;3.09;63.99
13974;BME280;7060;43.770;4.008;2023-03-03T01:54:19;101134.22;;;2.90;64.53
13974;BME280;7060;43.770;4.008;2023-03-03T01:56:49;101156.03;;;2.93;64.91
13974;BME280;7060;43.770;4.008;2023-03-03T01:59:20;101155.50;;;2.87;65.44
13974;BME280;7060;43.770;4.008;2023-03-03T02:01:50;101136.44;;;2.82;65.41
13974;BME280;7060;43.770;4.008;2023-03-03T02:04:20;101155.50;;;3.02;65.42
13974;BME280;7060;43.770;4.008;2023-03-03T02:06:53;101157.81;;;3.08;65.75
13974;BME280;7060;43.770;4.008;2023-03-03T02:09:29;101152.81;;;3.18;65.25
13974;BME280;7060;43.770;4.008;2023-03-03T02:12:04;101123.13;;;2.99;65.36
13974;BME280;7060;43.770;4.008;2023-03-03T02:14:34;101153.16;;;3.28;65.25
13974;BME280;7060;43.770;4.008;2023-03-03T02:17:02;101156.06;;;3.23;65.52
13974;BME280;7060;43.770;4.008;2023-03-03T02:19:37;101154.69;;;3.16;65.29
13974;BME280;7060;43.770;4.008;2023-03-03T02:22:13;101157.59;;;3.12;65.76
13974;BME280;7060;43.770;4.008;2023-03-03T02:24:47;101155.81;;;3.12;66.09
13974;BME280;7060;43.770;4.008;2023-03-03T02:27:19;101154.88;;;3.13;65.72
13974;BME280;7060;43.770;4.008;2023-03-03T02:29:48;101153.94;;;3.14;65.68
13974;BME280;7060;43.770;4.008;2023-03-03T02:32:18;101143.53;;;3.11;65.08
13974;BME280;7060;43.770;4.008;2023-03-03T02:34:47;101147.31;;;3.07;65.30
13974;BME280;7060;43.770;4.008;2023-03-03T02:37:17;101105.97;;;2.76;64.98
13974;BME280;7060;43.770;4.008;2023-03-03T02:39:46;101143.06;;;2.89;64.32
13974;BME280;7060;43.770;4.008;2023-03-03T02:42:18;101133.56;;;2.70;65.27
13974;BME280;7060;43.770;4.008;2023-03-03T02:44:53;101141.81;;;2.64;64.80
13974;BME280;7060;43.770;4.008;2023-03-03T02:47:22;101135.94;;;2.59;64.69
13974;BME280;7060;43.770;4.008;2023-03-03T02:49:51;101134.75;;;2.49;64.93
13974;BME280;7060;43.770;4.008;2023-03-03T02:52:19;101141.22;;;2.44;65.15
13974;BME280;7060;43.770;4.008;2023-03-03T02:54:48;101131.06;;;2.36;65.33
13974;BME280;7060;43.770;4.008;2023-03-03T02:57:17;101140.94;;;2.32;65.66
13974;BME280;7060;43.770;4.008;2023-03-03T02:59:47;101135.72;;;2.31;65.01
13974;BME280;7060;43.770;4.008;2023-03-03T03:02:18;101132.84;;;2.20;65.07
13974;BME280;7060;43.770;4.008;2023-03-03T03:04:46;101143.97;;;2.09;65.40
13974;BME280;7060;43.770;4.008;2023-03-03T03:07:19;101144.97;;;2.06;65.73
13974;BME280;7060;43.770;4.008;2023-03-03T03:09:48;101143.44;;;2.02;65.62
13974;BME280;7060;43.770;4.008;2023-03-03T03:12:16;101147.97;;;2.00;65.76
13974;BME280;7060;43.770;4.008;2023-03-03T03:14:49;101144.28;;;2.03;65.73
13974;BME280;7060;43.770;4.008;2023-03-03T03:17:20;101152.19;;;2.03;65.35
13974;BME280;7060;43.770;4.008;2023-03-03T03:19:50;101142.91;;;1.96;65.33
13974;BME280;7060;43.770;4.008;2023-03-03T03:22:19;101128.13;;;1.76;65.29
13974;BME280;7060;43.770;4.008;2023-03-03T03:24:48;101143.94;;;1.76;65.28
13974;BME280;7060;43.770;4.008;2023-03-03T03:27:16;101138.16;;;1.69;65.32
13974;BME280;7060;43.770;4.008;2023-03-03T03:29:47;101149.16;;;1.60;65.31
13974;BME280;7060;43.770;4.008;2023-03-03T03:32:16;101149.03;;;1.46;65.45
13974;BME280;7060;43.770;4.008;2023-03-03T03:34:46;101146.38;;;1.29;65.94
13974;BME280;7060;43.770;4.008;2023-03-03T03:37:15;101146.44;;;1.27;66.00
13974;BME280;7060;43.770;4.008;2023-03-03T03:39:45;101147.69;;;1.20;66.14
13974;BME280;7060;43.770;4.008;2023-03-03T03:42:13;101146.28;;;1.13;66.53
13974;BME280;7060;43.770;4.008;2023-03-03T03:44:42;101148.16;;;1.11;66.83
13974;BME280;7060;43.770;4.008;2023-03-03T03:47:11;101150.63;;;1.14;66.62
13974;BME280;7060;43.770;4.008;2023-03-03T03:49:39;101148.00;;;1.14;66.67
13974;BME280;7060;43.770;4.008;2023-03-03T03:52:09;101151.84;;;1.07;66.74
13974;BME280;7060;43.770;4.008;2023-03-03T03:54:38;101150.94;;;1.08;66.80
13974;BME280;7060;43.770;4.008;2023-03-03T03:57:06;101147.38;;;1.09;66.66
13974;BME280;7060;43.770;4.008;2023-03-03T03:59:35;101150.94;;;1.08;66.17
13974;BME280;7060;43.770;4.008;2023-03-03T04:02:04;101150.16;;;1.06;66.14
13974;BME280;7060;43.770;4.008;2023-03-03T04:04:32;101150.38;;;1.01;66.06
13974;BME280;7060;43.770;4.008;2023-03-03T04:07:01;101149.81;;;0.95;66.26
13974;BME280;7060;43.770;4.008;2023-03-03T04:09:31;101146.72;;;0.87;66.30
13974;BME280;7060;43.770;4.008;2023-03-03T04:12:00;101149.84;;;0.76;66.31
13974;BME280;7060;43.770;4.008;2023-03-03T04:14:29;101149.44;;;0.66;67.07
13974;BME280;7060;43.770;4.008;2023-03-03T04:16:59;101151.28;;;0.64;66.92
13974;BME280;7060;43.770;4.008;2023-03-03T04:19:27;101155.94;;;0.59;67.41
13974;BME280;7060;43.770;4.008;2023-03-03T04:21:55;101160.41;;;0.57;67.33
13974;BME280;7060;43.770;4.008;2023-03-03T04:24:25;101152.66;;;0.54;67.32
13974;BME280;7060;43.770;4.008;2023-03-03T04:26:55;101164.88;;;0.55;67.49
13974;BME280;7060;43.770;4.008;2023-03-03T04:29:24;101165.16;;;0.49;67.87
13974;BME280;7060;43.770;4.008;2023-03-03T04:31:53;101161.53;;;0.52;67.63
13974;BME280;7060;43.770;4.008;2023-03-03T04:34:22;101168.72;;;0.48;67.88
13974;BME280;7060;43.770;4.008;2023-03-03T04:36:50;101169.63;;;0.47;67.81
13974;BME280;7060;43.770;4.008;2023-03-03T04:39:19;101169.56;;;0.49;68.16
13974;BME280;7060;43.770;4.008;2023-03-03T04:41:47;101172.78;;;0.55;67.66
13974;BME280;7060;43.770;4.008;2023-03-03T04:44:18;101162.03;;;0.60;67.82
13974;BME280;7060;43.770;4.008;2023-03-03T04:46:47;101166.38;;;0.61;67.86
13974;BME280;7060;43.770;4.008;2023-03-03T04:49:17;101159.28;;;0.63;68.00
13974;BME280;7060;43.770;4.008;2023-03-03T04:51:46;101159.47;;;0.58;68.21
13974;BME280;7060;43.770;4.008;2023-03-03T04:54:14;101161.75;;;0.47;68.23
13974;BME280;7060;43.770;4.008;2023-03-03T04:56:44;101166.16;;;0.47;68.37
13974;BME280;7060;43.770;4.008;2023-03-03T04:59:13;101168.06;;;0.43;68.63
13974;BME280;7060;43.770;4.008;2023-03-03T05:01:45;101168.66;;;0.50;68.20
13974;BME280;7060;43.770;4.008;2023-03-03T05:04:22;101172.41;;;0.44;68.15
13974;BME280;7060;43.770;4.008;2023-03-03T05:06:50;101167.28;;;0.41;67.99
13974;BME280;7060;43.770;4.008;2023-03-03T05:09:18;101167.66;;;0.33;67.81
13974;BME280;7060;43.770;4.008;2023-03-03T05:11:47;101163.53;;;0.28;67.97
13974;BME280;7060;43.770;4.008;2023-03-03T05:14:15;101162.09;;;0.21;68.34
13974;BME280;7060;43.770;4.008;2023-03-03T05:16:45;101154.66;;;0.10;68.46
13974;BME280;7060;43.770;4.008;2023-03-03T05:19:14;101159.25;;;0.07;69.04
13974;BME280;7060;43.770;4.008;2023-03-03T05:21:42;101159.06;;;0.10;68.87
13974;BME280;7060;43.770;4.008;2023-03-03T05:24:12;101158.09;;;0.12;68.88
13974;BME280;7060;43.770;4.008;2023-03-03T05:26:41;101157.22;;;0.12;69.24
13974;BME280;7060;43.770;4.008;2023-03-03T05:29:09;101169.31;;;0.16;69.58
13974;BME280;7060;43.770;4.008;2023-03-03T05:31:38;101165.78;;;0.17;69.16
13974;BME280;7060;43.770;4.008;2023-03-03T05:34:08;101162.22;;;0.18;69.26
13974;BME280;7060;43.770;4.008;2023-03-03T05:36:37;101168.34;;;0.18;68.65
13974;BME280;7060;43.770;4.008;2023-03-03T05:39:06;101159.66;;;0.16;68.60
13974;BME280;7060;43.770;4.008;2023-03-03T05:41:34;101163.00;;;0.20;69.34
13974;BME280;7060;43.770;4.008;2023-03-03T05:44:03;101155.78;;;0.25;68.94
13974;BME280;7060;43.770;4.008;2023-03-03T05:46:31;101157.47;;;0.26;68.88
13974;BME280;7060;43.770;4.008;2023-03-03T05:49:00;101154.06;;;0.24;69.05
13974;BME280;7060;43.770;4.008;2023-03-03T05:51:30;101151.31;;;0.27;69.61
13974;BME280;7060;43.770;4.008;2023-03-03T05:53:58;101153.59;;;0.34;69.50
13974;BME280;7060;43.770;4.008;2023-03-03T05:56:27;101150.72;;;0.39;69.44
13974;BME280;7060;43.770;4.008;2023-03-03T05:58:55;101163.78;;;0.41;69.95
13974;BME280;7060;43.770;4.008;2023-03-03T06:01:24;101157.69;;;0.40;69.26
13974;BME280;7060;43.770;4.008;2023-03-03T06:03:52;101164.25;;;0.31;69.08
13974;BME280;7060;43.770;4.008;2023-03-03T06:06:23;101166.56;;;0.19;68.65
13974;BME280;7060;43.770;4.008;2023-03-03T06:08:54;101161.94;;;0.05;69.12
13974;BME280;7060;43.770;4.008;2023-03-03T06:11:23;101165.69;;;-0.01;69.06
13974;BME280;7060;43.770;4.008;2023-03-03T06:13:53;101169.03;;;0.03;68.73
13974;BME280;7060;43.770;4.008;2023-03-03T06:16:22;101177.78;;;0.04;68.80
13974;BME280;7060;43.770;4.008;2023-03-03T06:18:52;101185.53;;;0.07;69.06
13974;BME280;7060;43.770;4.008;2023-03-03T06:21:20;101183.53;;;0.12;68.67
13974;BME280;7060;43.770;4.008;2023-03-03T06:23:49;101178.28;;;0.12;69.22
13974;BME280;7060;43.770;4.008;2023-03-03T06:26:19;101189.63;;;0.12;69.18
13974;BME280;7060;43.770;4.008;2023-03-03T06:28:47;101188.59;;;0.16;69.08
13974;BME280;7060;43.770;4.008;2023-03-03T06:31:16;101200.75;;;0.19;68.82
13974;BME280;7060;43.770;4.008;2023-03-03T06:33:44;101191.28;;;0.15;68.84
13974;BME280;7060;43.770;4.008;2023-03-03T06:36:13;101202.00;;;0.10;69.18
13974;BME280;7060;43.770;4.008;2023-03-03T06:38:41;101201.06;;;0.11;69.21
13974;BME280;7060;43.770;4.008;2023-03-03T06:41:10;101207.41;;;0.07;68.83
13974;BME280;7060;43.770;4.008;2023-03-03T06:43:40;101208.28;;;0.08;69.20
13974;BME280;7060;43.770;4.008;2023-03-03T06:46:08;101211.75;;;0.08;69.92
13974;BME280;7060;43.770;4.008;2023-03-03T06:48:38;101209.81;;;0.12;69.51
13974;BME280;7060;43.770;4.008;2023-03-03T06:51:16;101206.66;;;0.24;69.46
13974;BME280;7060;43.770;4.008;2023-03-03T06:53:47;101209.28;;;0.24;69.55
13974;BME280;7060;43.770;4.008;2023-03-03T06:56:17;101201.19;;;0.28;69.96
13974;BME280;7060;43.770;4.008;2023-03-03T06:58:47;101212.13;;;0.38;69.84
13974;BME280;7060;43.770;4.008;2023-03-03T07:01:17;101210.28;;;0.40;70.13
13974;BME280;7060;43.770;4.008;2023-03-03T07:03:45;101210.88;;;0.47;70.69
13974;BME280;7060;43.770;4.008;2023-03-03T07:06:20;101214.72;;;0.58;70.21
13974;BME280;7060;43.770;4.008;2023-03-03T07:08:50;101211.66;;;0.67;70.03
13974;BME280;7060;43.770;4.008;2023-03-03T07:11:20;101223.69;;;0.73;69.64
13974;BME280;7060;43.770;4.008;2023-03-03T07:13:52;101225.19;;;0.79;69.85
13974;BME280;7060;43.770;4.008;2023-03-03T07:16:24;101228.38;;;0.85;69.71
13974;BME280;7060;43.770;4.008;2023-03-03T07:18:56;101223.59;;;0.93;69.46
13974;BME280;7060;43.770;4.008;2023-03-03T07:21:30;101232.78;;;1.03;69.60
13974;BME280;7060;43.770;4.008;2023-03-03T07:24:13;101235.69;;;1.16;69.61
13974;BME280;7060;43.770;4.008;2023-03-03T07:26:45;101239.41;;;1.29;69.49
13974;BME280;7060;43.770;4.008;2023-03-03T07:29:21;101233.50;;;1.43;69.71
13974;BME280;7060;43.770;4.008;2023-03-03T07:31:52;101238.00;;;1.58;69.66
13974;BME280;7060;43.770;4.008;2023-03-03T07:34:23;101244.97;;;1.77;69.53
13974;BME280;7060;43.770;4.008;2023-03-03T07:36:54;101187.63;;;1.64;69.46
13974;BME280;7060;43.770;4.008;2023-03-03T07:39:34;101241.63;;;2.08;69.90
13974;BME280;7060;43.770;4.008;2023-03-03T07:42:16;101235.06;;;2.32;69.40
13974;BME280;7060;43.770;4.008;2023-03-03T07:44:57;101153.81;;;2.05;69.37
13974;BME280;7060;43.770;4.008;2023-03-03T07:47:27;101232.84;;;2.89;70.10
13974;BME280;7060;43.770;4.008;2023-03-03T07:49:59;101228.03;;;3.42;70.57
13974;BME280;7060;43.770;4.008;2023-03-03T07:52:30;101174.13;;;3.61;70.04
13974;BME280;7060;43.770;4.008;2023-03-03T07:55:22;101223.06;;;4.55;69.70
13974;BME280;7060;43.770;4.008;2023-03-03T07:57:53;101225.75;;;5.10;68.53
13974;BME280;7060;43.770;4.008;2023-03-03T08:03:39;101216.47;;;5.96;65.65
13974;BME280;7060;43.770;4.008;2023-03-03T08:06:29;101219.53;;;6.41;63.93
13974;BME280;7060;43.770;4.008;2023-03-03T08:09:01;101230.03;;;6.80;63.61
13974;BME280;7060;43.770;4.008;2023-03-03T08:11:48;101228.25;;;7.29;62.72
13974;BME280;7060;43.770;4.008;2023-03-03T08:14:24;101228.59;;;7.61;59.86
13974;BME280;7060;43.770;4.008;2023-03-03T08:16:54;101221.19;;;7.88;59.58
13974;BME280;7060;43.770;4.008;2023-03-03T08:19:29;101218.44;;;8.12;57.31
13974;BME280;7060;43.770;4.008;2023-03-03T08:22:00;101222.09;;;8.33;56.50
13974;BME280;7060;43.770;4.008;2023-03-03T08:24:30;101217.53;;;8.46;54.66
13974;BME280;7060;43.770;4.008;2023-03-03T08:26:58;101208.22;;;8.52;54.24
13974;BME280;7060;43.770;4.008;2023-03-03T08:29:27;101213.03;;;8.58;53.48
13974;BME280;7060;43.770;4.008;2023-03-03T08:31:56;101212.78;;;8.61;54.29
13974;BME280;7060;43.770;4.008;2023-03-03T08:34:24;101209.63;;;8.67;53.98
13974;BME280;7060;43.770;4.008;2023-03-03T08:36:54;101219.09;;;8.71;53.44
13974;BME280;7060;43.770;4.008;2023-03-03T08:39:24;101219.47;;;8.78;53.45
13974;BME280;7060;43.770;4.008;2023-03-03T08:41:52;101214.94;;;8.90;53.28
13974;BME280;7060;43.770;4.008;2023-03-03T08:44:21;101206.72;;;8.93;52.45
13974;BME280;7060;43.770;4.008;2023-03-03T08:46:49;101210.09;;;8.95;51.82
13974;BME280;7060;43.770;4.008;2023-03-03T08:49:24;101208.88;;;8.99;52.14
13974;BME280;7060;43.770;4.008;2023-03-03T08:51:54;101222.22;;;8.99;50.81
13974;BME280;7060;43.770;4.008;2023-03-03T08:54:22;101211.56;;;8.99;51.50
13974;BME280;7060;43.770;4.008;2023-03-03T08:56:51;101219.06;;;9.05;51.11
13974;BME280;7060;43.770;4.008;2023-03-03T08:59:19;101209.72;;;9.10;50.32
13974;BME280;7060;43.770;4.008;2023-03-03T09:01:48;101223.63;;;9.14;48.64
13974;BME280;7060;43.770;4.008;2023-03-03T09:04:16;101225.31;;;9.15;48.25
13974;BME280;7060;43.770;4.008;2023-03-03T09:06:45;101227.75;;;9.18;48.67
13974;BME280;7060;43.770;4.008;2023-03-03T09:09:15;101233.59;;;9.23;49.57
13974;BME280;7060;43.770;4.008;2023-03-03T09:11:44;101228.13;;;9.25;50.43
13974;BME280;7060;43.770;4.008;2023-03-03T09:14:14;101237.47;;;9.30;49.68
13974;BME280;7060;43.770;4.008;2023-03-03T09:16:48;101231.53;;;9.27;49.26
13974;BME280;7060;43.770;4.008;2023-03-03T09:19:21;101241.34;;;9.37;50.33
13974;BME280;7060;43.770;4.008;2023-03-03T09:21:51;101248.00;;;9.32;49.46
13974;BME280;7060;43.770;4.008;2023-03-03T09:24:27;101245.22;;;9.33;49.06
13974;BME280;7060;43.770;4.008;2023-03-03T09:26:58;101240.72;;;9.34;48.83
13974;BME280;7060;43.770;4.008;2023-03-03T09:29:28;101246.69;;;9.37;48.31
13974;BME280;7060;43.770;4.008;2023-03-03T09:31:58;101240.22;;;9.40;47.54
13974;BME280;7060;43.770;4.008;2023-03-03T09:34:37;101239.59;;;9.47;47.96
13974;BME280;7060;43.770;4.008;2023-03-03T09:37:20;101240.19;;;9.51;47.97
13974;BME280;7060;43.770;4.008;2023-03-03T09:39:52;101242.72;;;9.52;46.85
13974;BME280;7060;43.770;4.008;2023-03-03T09:42:36;101237.25;;;9.54;47.02
13974;BME280;7060;43.770;4.008;2023-03-03T09:45:28;101227.09;;;9.48;46.85
13974;BME280;7060;43.770;4.008;2023-03-03T09:48:27;101245.50;;;9.62;46.90
13974;BME280;7060;43.770;4.008;2023-03-03T09:51:10;101237.50;;;9.62;47.20
13974;BME280;7060;43.770;4.008;2023-03-03T09:54:10;101234.03;;;9.71;47.40
13974;BME280;7060;43.770;4.008;2023-03-03T09:56:45;101241.41;;;9.79;48.09
13974;BME280;7060;43.770;4.008;2023-03-03T09:59:38;101196.13;;;9.57;46.74
13974;BME280;7060;43.770;4.008;2023-03-03T10:02:23;101229.38;;;9.84;46.42
13974;BME280;7060;43.770;4.008;2023-03-03T10:05:11;101231.13;;;9.95;47.85
13974;BME280;7060;43.770;4.008;2023-03-03T10:07:50;101236.53;;;10.05;47.54
13974;BME280;7060;43.770;4.008;2023-03-03T10:13:34;101238.59;;;10.22;47.00
13974;BME280;7060;43.770;4.008;2023-03-03T10:16:17;101243.69;;;10.25;46.59
13974;BME280;7060;43.770;4.008;2023-03-03T10:18:56;101196.34;;;10.06;45.75
13974;BME280;7060;43.770;4.008;2023-03-03T10:21:29;101235.28;;;10.30;45.91
13974;BME280;7060;43.770;4.008;2023-03-03T10:24:08;101217.94;;;10.24;45.94
13974;BME280;7060;43.770;4.008;2023-03-03T10:27:02;101217.50;;;10.40;45.86
13974;BME280;7060;43.770;4.008;2023-03-03T10:29:48;101109.38;;;9.72;45.26
13974;BME280;7060;43.770;4.008;2023-03-03T10:35:24;101219.91;;;10.43;44.98
13974;BME280;7060;43.770;4.008;2023-03-03T10:38:21;101215.00;;;10.48;45.54
13974;BME280;7060;43.770;4.008;2023-03-03T10:40:57;101211.50;;;10.57;45.00
13974;BME280;7060;43.770;4.008;2023-03-03T10:43:46;101208.31;;;10.63;44.93
13974;BME280;7060;43.770;4.008;2023-03-03T10:46:30;101211.16;;;10.71;45.11
13974;BME280;7060;43.770;4.008;2023-03-03T10:49:22;101208.44;;;10.92;45.29
13974;BME280;7060;43.770;4.008;2023-03-03T10:52:16;101202.41;;;11.09;44.84
13974;BME280;7060;43.770;4.008;2023-03-03T10:54:58;101204.84;;;11.32;43.76
13974;BME280;7060;43.770;4.008;2023-03-03T10:57:35;101193.19;;;11.52;42.47
13974;BME280;7060;43.770;4.008;2023-03-03T11:00:20;101203.34;;;11.58;42.71
13974;BME280;7060;43.770;4.008;2023-03-03T11:06:01;101188.66;;;11.72;42.45
13974;BME280;7060;43.770;4.008;2023-03-03T11:08:35;101199.22;;;11.83;42.32
13974;BME280;7060;43.770;4.008;2023-03-03T11:11:13;101168.75;;;11.94;42.43
13974;BME280;7060;43.770;4.008;2023-03-03T11:13:48;101165.75;;;12.06;41.23
13974;BME280;7060;43.770;4.008;2023-03-03T11:16:40;101181.50;;;12.38;42.12
13974;BME280;7060;43.770;4.008;2023-03-03T11:19:23;101177.78;;;12.49;40.03
13974;BME280;7060;43.770;4.008;2023-03-03T11:22:02;101181.56;;;12.56;40.99
13974;BME280;7060;43.770;4.008;2023-03-03T11:24:44;101178.38;;;12.70;41.04
13974;BME280;7060;43.770;4.008;2023-03-03T11:27:24;101177.84;;;12.94;39.83
13974;BME280;7060;43.770;4.008;2023-03-03T11:33:03;101174.59;;;13.18;39.13
13974;BME280;7060;43.770;4.008;2023-03-03T11:35:39;101149.25;;;13.03;39.26
13974;BME280;7060;43.770;4.008;2023-03-03T11:41:19;101160.38;;;13.26;39.04
13974;BME280;7060;43.770;4.008;2023-03-03T11:43:52;101135.66;;;13.04;38.04
13974;BME280;7060;43.770;4.008;2023-03-03T11:46:25;101141.13;;;13.12;38.97
13974;BME280;7060;43.770;4.008;2023-03-03T11:49:00;101159.22;;;13.28;37.82
13974;BME280;7060;43.770;4.008;2023-03-03T11:51:40;101151.16;;;13.28;38.62
13974;BME280;7060;43.770;4.008;2023-03-03T11:54:17;101150.88;;;13.31;39.63
13974;BME280;7060;43.770;4.008;2023-03-03T11:56:50;101147.00;;;13.43;39.49
13974;BME280;7060;43.770;4.008;2023-03-03T11:59:40;101135.69;;;13.57;39.32
13974;BME280;7060;43.770;4.008;2023-03-03T12:05:08;101136.00;;;13.72;37.94
13974;BME280;7060;43.770;4.008;2023-03-03T12:07:44;101135.16;;;13.72;37.86
13974;BME280;7060;43.770;4.008;2023-03-03T12:10:21;101128.94;;;13.71;38.25
13974;BME280;7060;43.770;4.008;2023-03-03T12:13:00;101132.31;;;13.73;38.25
13974;BME280;7060;43.770;4.008;2023-03-03T12:15:35;101129.47;;;13.75;36.00
13974;BME280;7060;43.770;4.008;2023-03-03T12:18:17;101123.59;;;13.79;38.31
13974;BME280;7060;43.770;4.008;2023-03-03T12:20:57;101114.38;;;13.82;38.01
13974;BME280;7060;43.770;4.008;2023-03-03T12:23:44;101107.44;;;13.97;37.32
13974;BME280;7060;43.770;4.008;2023-03-03T12:26:19;101114.34;;;14.00;37.13
13974;BME280;7060;43.770;4.008;2023-03-03T12:28:57;100978.94;;;13.23;37.34
13974;BME280;7060;43.770;4.008;2023-03-03T12:31:39;101101.25;;;14.05;35.84
13974;BME280;7060;43.770;4.008;2023-03-03T12:34:16;101103.94;;;14.05;36.97
13974;BME280;7060;43.770;4.008;2023-03-03T12:36:56;101100.25;;;14.06;36.60
13974;BME280;7060;43.770;4.008;2023-03-03T12:42:22;101090.16;;;14.08;36.63
13974;BME280;7060;43.770;4.008;2023-03-03T12:45:00;101082.00;;;14.17;37.83
13974;BME280;7060;43.770;4.008;2023-03-03T12:47:37;101090.13;;;14.26;37.46
13974;BME280;7060;43.770;4.008;2023-03-03T12:50:23;101085.09;;;14.31;37.73
13974;BME280;7060;43.770;4.008;2023-03-03T12:53:00;101079.03;;;14.37;36.51
13974;BME280;7060;43.770;4.008;2023-03-03T12:55:44;101071.66;;;14.39;35.69
13974;BME280;7060;43.770;4.008;2023-03-03T12:58:24;101079.72;;;14.39;36.88
13974;BME280;7060;43.770;4.008;2023-03-03T13:01:01;101069.28;;;14.36;36.60
13974;BME280;7060;43.770;4.008;2023-03-03T13:03:39;101073.50;;;14.38;36.61
13974;BME280;7060;43.770;4.008;2023-03-03T13:06:27;101071.97;;;14.36;36.03
13974;BME280;7060;43.770;4.008;2023-03-03T13:09:16;101068.66;;;14.42;35.84
13974;BME280;7060;43.770;4.008;2023-03-03T13:12:07;101068.38;;;14.53;36.61
13974;BME280;7060;43.770;4.008;2023-03-03T13:14:44;101066.06;;;14.66;37.13
13974;BME280;7060;43.770;4.008;2023-03-03T13:17:25;101070.31;;;14.77;35.88
13974;BME280;7060;43.770;4.008;2023-03-03T13:19:56;101068.13;;;14.80;35.10
13974;BME280;7060;43.770;4.008;2023-03-03T13:22:34;101066.06;;;14.66;34.48
13974;BME280;7060;43.770;4.008;2023-03-03T13:25:08;101064.38;;;14.57;35.09
13974;BME280;7060;43.770;4.008;2023-03-03T13:27:47;101067.34;;;14.54;35.11
13974;BME280;7060;43.770;4.008;2023-03-03T13:30:21;101057.44;;;14.54;34.69
13974;BME280;7060;43.770;4.008;2023-03-03T13:32:56;101062.31;;;14.51;35.23
13974;BME280;7060;43.770;4.008;2023-03-03T13:35:34;101061.97;;;14.54;34.93
13974;BME280;7060;43.770;4.008;2023-03-03T13:38:09;101055.41;;;14.48;34.41
13974;BME280;7060;43.770;4.008;2023-03-03T13:40:42;101058.94;;;14.49;34.61
13974;BME280;7060;43.770;4.008;2023-03-03T13:43:16;101053.56;;;14.49;34.42
13974;BME280;7060;43.770;4.008;2023-03-03T13:45:53;101039.91;;;14.42;35.53
13974;BME280;7060;43.770;4.008;2023-03-03T13:48:41;101054.06;;;14.52;35.23
13974;BME280;7060;43.770;4.008;2023-03-03T13:51:18;101052.03;;;14.46;34.88
13974;BME280;7060;43.770;4.008;2023-03-03T13:53:57;101051.03;;;14.47;35.32
13974;BME280;7060;43.770;4.008;2023-03-03T13:56:43;101048.00;;;14.50;35.50
13974;BME280;7060;43.770;4.008;2023-03-03T13:59:23;101048.53;;;14.54;35.59
13974;BME280;7060;43.770;4.008;2023-03-03T14:02:01;101048.06;;;14.59;35.01
13974;BME280;7060;43.770;4.008;2023-03-03T14:04:45;101030.03;;;14.51;34.75